Terminal Aerodrome Forecast
Issued by NWS

Home | Current Version | Previous Version | Text Only | Print | Product List | Glossary On
Versions: 1 2 3 4 5 6 7 8 9 10 11 12 13 14 15 16 17 18 19 20 21 22 23 24 25 26 27 28 29 30 31
000
FTUS43 KDLH 041814 AAA
TAFHYR
TAF AMD
KHYR 041814Z 0418/0518 14005G13KT P6SM SCT040
     FM050000 15004KT P6SM SCT050 BKN090
     FM050800 16006KT P6SM VCSH SCT035 BKN070
     FM051000 13003KT 4SM BR VCSH SCT035
     FM051400 17006KT P6SM VCSH BKN050=

USA.gov is the U.S. government's official web portal to all federal, state and local government web resources and services.